Yockey, Indiana
Current Conditions -  °F | °C
As of 10:53 PM on Sunday 21 Dec 2014 (Local Time) from KBMG Reporting Station
Clear Clear  
Wind Chill: 23°   Ceiling: Unl
Heat Index: 30°   Visibility: 8mi
Dew Point: 27°   Wind: 7mph
Humidity: 88%   Direction: 130°SE
Pressure: 30.07"   Gusts: NA
Location:  38.7366°N, 86.4546°W
Report Text: KBMG 220353Z AUTO 13006KT 8SM CLR M01/M03 A3007 RMK AO2 SLP189 T10111028
Loading
Personal Weather Stations






























Interactive Weather Map New forecast layout! Learn more

10-Day Weather Forecast

Advertisements
Track Severe Weather on mobile